sensor_id;sensor_type;location;lat;lon;timestamp;P1;durP1;ratioP1;P2;durP2;ratioP2
23555;SDS011;11956;53.184;8.578;2023-03-11T00:02:00;10.27;;;5.05;;
23555;SDS011;11956;53.184;8.578;2023-03-11T00:05:00;13.32;;;5.13;;
23555;SDS011;11956;53.184;8.578;2023-03-11T00:08:02;13.82;;;5.85;;
23555;SDS011;11956;53.184;8.578;2023-03-11T00:11:05;16.40;;;6.25;;
23555;SDS011;11956;53.184;8.578;2023-03-11T00:14:06;11.20;;;5.43;;
23555;SDS011;11956;53.184;8.578;2023-03-11T00:17:07;17.35;;;6.22;;
23555;SDS011;11956;53.184;8.578;2023-03-11T00:20:10;9.45;;;5.15;;
23555;SDS011;11956;53.184;8.578;2023-03-11T00:23:22;9.90;;;4.72;;
23555;SDS011;11956;53.184;8.578;2023-03-11T00:26:24;10.23;;;5.77;;
23555;SDS011;11956;53.184;8.578;2023-03-11T00:29:25;9.52;;;3.30;;
23555;SDS011;11956;53.184;8.578;2023-03-11T00:32:26;7.00;;;3.15;;
23555;SDS011;11956;53.184;8.578;2023-03-11T00:35:29;6.25;;;2.25;;
23555;SDS011;11956;53.184;8.578;2023-03-11T00:38:32;6.00;;;2.53;;
23555;SDS011;11956;53.184;8.578;2023-03-11T00:41:33;9.60;;;2.50;;
23555;SDS011;11956;53.184;8.578;2023-03-11T00:44:34;5.57;;;2.53;;
23555;SDS011;11956;53.184;8.578;2023-03-11T00:47:35;4.70;;;2.10;;
23555;SDS011;11956;53.184;8.578;2023-03-11T00:50:36;6.15;;;2.60;;
23555;SDS011;11956;53.184;8.578;2023-03-11T00:53:37;5.90;;;3.05;;
23555;SDS011;11956;53.184;8.578;2023-03-11T00:56:38;6.22;;;2.08;;
23555;SDS011;11956;53.184;8.578;2023-03-11T00:59:41;5.45;;;2.17;;
23555;SDS011;11956;53.184;8.578;2023-03-11T01:02:42;4.68;;;2.15;;
23555;SDS011;11956;53.184;8.578;2023-03-11T01:05:43;4.70;;;2.17;;
23555;SDS011;11956;53.184;8.578;2023-03-11T01:08:43;4.68;;;2.40;;
23555;SDS011;11956;53.184;8.578;2023-03-11T01:11:44;4.47;;;2.30;;
23555;SDS011;11956;53.184;8.578;2023-03-11T01:14:45;8.93;;;3.25;;
23555;SDS011;11956;53.184;8.578;2023-03-11T01:17:46;8.25;;;3.03;;
23555;SDS011;11956;53.184;8.578;2023-03-11T01:20:47;11.52;;;3.22;;
23555;SDS011;11956;53.184;8.578;2023-03-11T01:23:48;9.80;;;4.13;;
23555;SDS011;11956;53.184;8.578;2023-03-11T01:26:49;8.65;;;4.00;;
23555;SDS011;11956;53.184;8.578;2023-03-11T01:29:50;17.10;;;5.32;;
23555;SDS011;11956;53.184;8.578;2023-03-11T01:32:52;13.45;;;5.93;;
23555;SDS011;11956;53.184;8.578;2023-03-11T01:35:54;23.63;;;6.57;;
23555;SDS011;11956;53.184;8.578;2023-03-11T01:38:55;17.92;;;6.93;;
23555;SDS011;11956;53.184;8.578;2023-03-11T01:41:56;18.88;;;8.88;;
23555;SDS011;11956;53.184;8.578;2023-03-11T01:44:57;27.25;;;13.95;;
23555;SDS011;11956;53.184;8.578;2023-03-11T01:47:59;30.48;;;14.50;;
23555;SDS011;11956;53.184;8.578;2023-03-11T01:51:00;27.90;;;15.43;;
23555;SDS011;11956;53.184;8.578;2023-03-11T01:54:03;25.73;;;14.15;;
23555;SDS011;11956;53.184;8.578;2023-03-11T01:57:37;29.63;;;13.13;;
23555;SDS011;11956;53.184;8.578;2023-03-11T02:00:42;27.42;;;11.63;;
23555;SDS011;11956;53.184;8.578;2023-03-11T02:03:43;22.25;;;11.60;;
23555;SDS011;11956;53.184;8.578;2023-03-11T02:06:45;21.90;;;9.48;;
23555;SDS011;11956;53.184;8.578;2023-03-11T02:09:46;16.55;;;7.65;;
23555;SDS011;11956;53.184;8.578;2023-03-11T02:12:48;21.30;;;9.70;;
23555;SDS011;11956;53.184;8.578;2023-03-11T02:15:57;23.63;;;10.27;;
23555;SDS011;11956;53.184;8.578;2023-03-11T02:19:01;25.15;;;12.15;;
23555;SDS011;11956;53.184;8.578;2023-03-11T02:22:16;28.80;;;10.63;;
23555;SDS011;11956;53.184;8.578;2023-03-11T02:25:26;24.00;;;10.60;;
23555;SDS011;11956;53.184;8.578;2023-03-11T02:29:15;32.28;;;11.52;;
23555;SDS011;11956;53.184;8.578;2023-03-11T02:32:18;28.08;;;13.43;;
23555;SDS011;11956;53.184;8.578;2023-03-11T02:35:20;31.85;;;13.05;;
23555;SDS011;11956;53.184;8.578;2023-03-11T02:38:21;28.48;;;12.82;;
23555;SDS011;11956;53.184;8.578;2023-03-11T02:41:23;26.48;;;12.10;;
23555;SDS011;11956;53.184;8.578;2023-03-11T02:44:24;35.15;;;13.07;;
23555;SDS011;11956;53.184;8.578;2023-03-11T02:47:26;22.85;;;12.48;;
23555;SDS011;11956;53.184;8.578;2023-03-11T02:50:27;23.00;;;11.00;;
23555;SDS011;11956;53.184;8.578;2023-03-11T02:53:30;31.48;;;12.02;;
23555;SDS011;11956;53.184;8.578;2023-03-11T02:56:37;23.15;;;7.95;;
23555;SDS011;11956;53.184;8.578;2023-03-11T02:59:38;12.00;;;4.53;;
23555;SDS011;11956;53.184;8.578;2023-03-11T03:02:39;19.85;;;5.13;;
23555;SDS011;11956;53.184;8.578;2023-03-11T03:05:44;16.85;;;4.93;;
23555;SDS011;11956;53.184;8.578;2023-03-11T03:08:45;19.05;;;5.20;;
23555;SDS011;11956;53.184;8.578;2023-03-11T03:11:46;17.48;;;4.13;;
23555;SDS011;11956;53.184;8.578;2023-03-11T03:14:47;17.67;;;4.07;;
23555;SDS011;11956;53.184;8.578;2023-03-11T03:17:50;17.98;;;3.60;;
23555;SDS011;11956;53.184;8.578;2023-03-11T03:20:51;17.25;;;3.28;;
23555;SDS011;11956;53.184;8.578;2023-03-11T03:23:52;11.65;;;2.60;;
23555;SDS011;11956;53.184;8.578;2023-03-11T03:26:53;13.20;;;2.78;;
23555;SDS011;11956;53.184;8.578;2023-03-11T03:29:54;19.65;;;2.97;;
23555;SDS011;11956;53.184;8.578;2023-03-11T03:32:56;12.40;;;2.45;;
23555;SDS011;11956;53.184;8.578;2023-03-11T03:35:57;12.82;;;2.58;;
23555;SDS011;11956;53.184;8.578;2023-03-11T03:39:02;12.27;;;2.25;;
23555;SDS011;11956;53.184;8.578;2023-03-11T03:42:08;16.65;;;3.10;;
23555;SDS011;11956;53.184;8.578;2023-03-11T03:45:13;8.35;;;1.70;;
23555;SDS011;11956;53.184;8.578;2023-03-11T03:48:15;8.88;;;1.73;;
23555;SDS011;11956;53.184;8.578;2023-03-11T03:51:18;9.45;;;1.77;;
23555;SDS011;11956;53.184;8.578;2023-03-11T03:54:48;7.82;;;1.90;;
23555;SDS011;11956;53.184;8.578;2023-03-11T03:57:50;11.70;;;2.35;;
23555;SDS011;11956;53.184;8.578;2023-03-11T04:00:56;15.40;;;1.90;;
23555;SDS011;11956;53.184;8.578;2023-03-11T04:03:58;14.07;;;1.75;;
23555;SDS011;11956;53.184;8.578;2023-03-11T04:07:01;8.75;;;1.92;;
23555;SDS011;11956;53.184;8.578;2023-03-11T04:10:05;11.57;;;2.75;;
23555;SDS011;11956;53.184;8.578;2023-03-11T04:13:07;12.85;;;2.92;;
23555;SDS011;11956;53.184;8.578;2023-03-11T04:16:09;7.15;;;3.25;;
23555;SDS011;11956;53.184;8.578;2023-03-11T04:19:19;12.10;;;4.53;;
23555;SDS011;11956;53.184;8.578;2023-03-11T04:22:20;12.23;;;3.95;;
23555;SDS011;11956;53.184;8.578;2023-03-11T04:25:21;13.98;;;4.55;;
23555;SDS011;11956;53.184;8.578;2023-03-11T04:28:22;12.55;;;4.50;;
23555;SDS011;11956;53.184;8.578;2023-03-11T04:31:24;11.75;;;3.17;;
23555;SDS011;11956;53.184;8.578;2023-03-11T04:34:25;10.13;;;3.63;;
23555;SDS011;11956;53.184;8.578;2023-03-11T04:37:27;10.52;;;3.38;;
23555;SDS011;11956;53.184;8.578;2023-03-11T04:40:29;10.75;;;3.45;;
23555;SDS011;11956;53.184;8.578;2023-03-11T04:43:31;9.35;;;3.08;;
23555;SDS011;11956;53.184;8.578;2023-03-11T04:46:33;9.90;;;2.83;;
23555;SDS011;11956;53.184;8.578;2023-03-11T04:49:36;9.65;;;3.00;;
23555;SDS011;11956;53.184;8.578;2023-03-11T04:52:37;10.75;;;4.28;;
23555;SDS011;11956;53.184;8.578;2023-03-11T04:55:39;12.90;;;5.03;;
23555;SDS011;11956;53.184;8.578;2023-03-11T04:58:41;12.68;;;4.95;;
23555;SDS011;11956;53.184;8.578;2023-03-11T05:01:42;11.82;;;3.67;;
23555;SDS011;11956;53.184;8.578;2023-03-11T05:04:43;5.85;;;1.98;;
23555;SDS011;11956;53.184;8.578;2023-03-11T05:07:44;8.05;;;1.75;;
23555;SDS011;11956;53.184;8.578;2023-03-11T05:10:47;9.82;;;2.08;;
23555;SDS011;11956;53.184;8.578;2023-03-11T05:13:48;6.07;;;1.95;;
23555;SDS011;11956;53.184;8.578;2023-03-11T05:16:49;11.88;;;2.15;;
23555;SDS011;11956;53.184;8.578;2023-03-11T05:19:51;8.20;;;2.10;;
23555;SDS011;11956;53.184;8.578;2023-03-11T05:22:57;11.00;;;2.40;;
23555;SDS011;11956;53.184;8.578;2023-03-11T05:25:59;7.30;;;2.45;;
23555;SDS011;11956;53.184;8.578;2023-03-11T05:29:01;13.32;;;3.08;;
23555;SDS011;11956;53.184;8.578;2023-03-11T05:32:02;11.57;;;2.70;;
23555;SDS011;11956;53.184;8.578;2023-03-11T05:35:04;10.13;;;2.60;;
23555;SDS011;11956;53.184;8.578;2023-03-11T05:38:06;6.95;;;2.72;;
23555;SDS011;11956;53.184;8.578;2023-03-11T05:41:07;11.32;;;2.97;;
23555;SDS011;11956;53.184;8.578;2023-03-11T05:44:09;15.18;;;5.22;;
23555;SDS011;11956;53.184;8.578;2023-03-11T05:47:12;10.63;;;2.47;;
23555;SDS011;11956;53.184;8.578;2023-03-11T05:50:13;10.18;;;2.42;;
23555;SDS011;11956;53.184;8.578;2023-03-11T05:53:16;11.70;;;2.47;;
23555;SDS011;11956;53.184;8.578;2023-03-11T05:56:19;6.85;;;1.83;;
23555;SDS011;11956;53.184;8.578;2023-03-11T05:59:23;7.80;;;2.20;;
23555;SDS011;11956;53.184;8.578;2023-03-11T06:02:29;12.65;;;1.58;;
23555;SDS011;11956;53.184;8.578;2023-03-11T06:05:30;8.18;;;1.67;;
23555;SDS011;11956;53.184;8.578;2023-03-11T06:08:32;10.63;;;1.98;;
23555;SDS011;11956;53.184;8.578;2023-03-11T06:11:37;3.45;;;1.65;;
23555;SDS011;11956;53.184;8.578;2023-03-11T06:14:38;4.80;;;1.38;;
23555;SDS011;11956;53.184;8.578;2023-03-11T06:17:39;10.85;;;1.83;;
23555;SDS011;11956;53.184;8.578;2023-03-11T06:20:41;6.50;;;1.65;;
23555;SDS011;11956;53.184;8.578;2023-03-11T06:23:42;5.13;;;1.50;;
23555;SDS011;11956;53.184;8.578;2023-03-11T06:26:44;5.32;;;1.50;;
23555;SDS011;11956;53.184;8.578;2023-03-11T06:29:50;10.02;;;1.00;;
23555;SDS011;11956;53.184;8.578;2023-03-11T06:32:53;4.55;;;1.27;;
23555;SDS011;11956;53.184;8.578;2023-03-11T06:35:55;6.38;;;1.50;;
23555;SDS011;11956;53.184;8.578;2023-03-11T06:38:57;7.55;;;1.67;;
23555;SDS011;11956;53.184;8.578;2023-03-11T06:42:00;4.10;;;0.90;;
23555;SDS011;11956;53.184;8.578;2023-03-11T06:45:03;4.25;;;1.23;;
23555;SDS011;11956;53.184;8.578;2023-03-11T06:48:06;4.47;;;1.35;;
23555;SDS011;11956;53.184;8.578;2023-03-11T06:51:08;8.75;;;1.88;;
23555;SDS011;11956;53.184;8.578;2023-03-11T06:54:10;9.35;;;1.70;;
23555;SDS011;11956;53.184;8.578;2023-03-11T06:57:11;7.43;;;2.25;;
23555;SDS011;11956;53.184;8.578;2023-03-11T07:00:14;5.88;;;2.25;;
23555;SDS011;11956;53.184;8.578;2023-03-11T07:03:20;5.28;;;2.00;;
23555;SDS011;11956;53.184;8.578;2023-03-11T07:06:22;4.85;;;2.05;;
23555;SDS011;11956;53.184;8.578;2023-03-11T07:09:31;8.70;;;3.25;;
23555;SDS011;11956;53.184;8.578;2023-03-11T07:12:32;20.33;;;3.10;;
23555;SDS011;11956;53.184;8.578;2023-03-11T07:15:33;10.23;;;2.80;;
23555;SDS011;11956;53.184;8.578;2023-03-11T07:18:35;6.25;;;1.80;;
23555;SDS011;11956;53.184;8.578;2023-03-11T07:21:37;5.80;;;1.63;;
23555;SDS011;11956;53.184;8.578;2023-03-11T07:24:38;8.25;;;2.00;;
23555;SDS011;11956;53.184;8.578;2023-03-11T07:27:39;3.88;;;1.80;;
23555;SDS011;11956;53.184;8.578;2023-03-11T07:30:40;6.25;;;1.90;;
23555;SDS011;11956;53.184;8.578;2023-03-11T07:33:43;5.57;;;1.83;;
23555;SDS011;11956;53.184;8.578;2023-03-11T07:36:45;6.38;;;2.22;;
23555;SDS011;11956;53.184;8.578;2023-03-11T07:39:46;3.30;;;1.15;;
23555;SDS011;11956;53.184;8.578;2023-03-11T07:42:47;3.00;;;1.13;;
23555;SDS011;11956;53.184;8.578;2023-03-11T07:45:49;4.80;;;1.70;;
23555;SDS011;11956;53.184;8.578;2023-03-11T07:48:50;4.72;;;1.10;;
23555;SDS011;11956;53.184;8.578;2023-03-11T07:51:52;3.67;;;1.02;;
23555;SDS011;11956;53.184;8.578;2023-03-11T07:54:53;2.50;;;0.93;;
23555;SDS011;11956;53.184;8.578;2023-03-11T07:57:53;4.35;;;0.98;;
23555;SDS011;11956;53.184;8.578;2023-03-11T08:00:55;3.85;;;1.40;;
23555;SDS011;11956;53.184;8.578;2023-03-11T08:03:56;5.78;;;1.17;;
23555;SDS011;11956;53.184;8.578;2023-03-11T08:06:58;2.15;;;1.00;;
23555;SDS011;11956;53.184;8.578;2023-03-11T08:09:59;3.92;;;1.55;;
23555;SDS011;11956;53.184;8.578;2023-03-11T08:13:00;3.22;;;1.02;;
23555;SDS011;11956;53.184;8.578;2023-03-11T08:16:07;2.03;;;0.90;;
23555;SDS011;11956;53.184;8.578;2023-03-11T08:19:10;2.53;;;1.00;;
23555;SDS011;11956;53.184;8.578;2023-03-11T08:22:12;2.35;;;1.00;;
23555;SDS011;11956;53.184;8.578;2023-03-11T08:25:13;4.18;;;1.00;;
23555;SDS011;11956;53.184;8.578;2023-03-11T08:28:14;3.95;;;1.08;;
23555;SDS011;11956;53.184;8.578;2023-03-11T08:31:19;3.33;;;1.20;;
23555;SDS011;11956;53.184;8.578;2023-03-11T08:34:23;6.00;;;2.03;;
23555;SDS011;11956;53.184;8.578;2023-03-11T08:37:26;6.75;;;2.50;;
23555;SDS011;11956;53.184;8.578;2023-03-11T08:40:27;6.00;;;1.73;;
23555;SDS011;11956;53.184;8.578;2023-03-11T08:43:28;4.82;;;1.30;;
23555;SDS011;11956;53.184;8.578;2023-03-11T08:46:33;11.45;;;2.13;;
23555;SDS011;11956;53.184;8.578;2023-03-11T08:49:37;9.93;;;1.75;;
23555;SDS011;11956;53.184;8.578;2023-03-11T08:52:38;3.67;;;1.55;;
23555;SDS011;11956;53.184;8.578;2023-03-11T08:55:39;3.80;;;1.27;;
23555;SDS011;11956;53.184;8.578;2023-03-11T08:58:40;5.00;;;1.27;;
23555;SDS011;11956;53.184;8.578;2023-03-11T09:01:41;4.28;;;1.27;;
23555;SDS011;11956;53.184;8.578;2023-03-11T09:04:42;5.80;;;1.55;;
23555;SDS011;11956;53.184;8.578;2023-03-11T09:07:42;6.60;;;1.65;;
23555;SDS011;11956;53.184;8.578;2023-03-11T09:10:43;5.68;;;1.38;;
23555;SDS011;11956;53.184;8.578;2023-03-11T09:13:44;3.55;;;1.33;;
23555;SDS011;11956;53.184;8.578;2023-03-11T09:16:45;6.10;;;1.27;;
23555;SDS011;11956;53.184;8.578;2023-03-11T09:19:46;4.07;;;1.30;;
23555;SDS011;11956;53.184;8.578;2023-03-11T09:22:47;3.78;;;1.27;;
23555;SDS011;11956;53.184;8.578;2023-03-11T09:25:48;4.03;;;1.58;;
23555;SDS011;11956;53.184;8.578;2023-03-11T09:28:49;5.78;;;1.38;;
23555;SDS011;11956;53.184;8.578;2023-03-11T09:31:50;4.65;;;1.50;;
23555;SDS011;11956;53.184;8.578;2023-03-11T09:34:51;6.95;;;1.60;;
23555;SDS011;11956;53.184;8.578;2023-03-11T09:37:52;5.55;;;1.50;;
23555;SDS011;11956;53.184;8.578;2023-03-11T09:51:27;7.03;;;1.55;;
23555;SDS011;11956;53.184;8.578;2023-03-11T09:54:33;7.60;;;2.13;;
23555;SDS011;11956;53.184;8.578;2023-03-11T09:57:39;3.08;;;2.03;;
23555;SDS011;11956;53.184;8.578;2023-03-11T10:00:40;5.82;;;1.60;;
23555;SDS011;11956;53.184;8.578;2023-03-11T10:03:41;5.13;;;1.63;;
23555;SDS011;11956;53.184;8.578;2023-03-11T10:06:44;5.47;;;1.60;;
23555;SDS011;11956;53.184;8.578;2023-03-11T10:26:57;6.10;;;1.90;;
23555;SDS011;11956;53.184;8.578;2023-03-11T10:30:12;4.53;;;1.90;;
23555;SDS011;11956;53.184;8.578;2023-03-11T10:36:56;6.47;;;2.20;;
23555;SDS011;11956;53.184;8.578;2023-03-11T10:43:38;4.97;;;1.52;;
23555;SDS011;11956;53.184;8.578;2023-03-11T10:46:44;5.43;;;1.70;;
23555;SDS011;11956;53.184;8.578;2023-03-11T10:49:46;3.47;;;1.48;;
23555;SDS011;11956;53.184;8.578;2023-03-11T10:53:07;3.53;;;1.55;;
23555;SDS011;11956;53.184;8.578;2023-03-11T11:03:19;10.35;;;2.00;;
23555;SDS011;11956;53.184;8.578;2023-03-11T11:06:40;7.93;;;1.50;;
23555;SDS011;11956;53.184;8.578;2023-03-11T11:09:41;5.57;;;2.05;;
23555;SDS011;11956;53.184;8.578;2023-03-11T11:12:55;6.38;;;1.90;;
23555;SDS011;11956;53.184;8.578;2023-03-11T11:16:01;6.15;;;1.75;;
23555;SDS011;11956;53.184;8.578;2023-03-11T11:19:17;8.65;;;2.03;;
23555;SDS011;11956;53.184;8.578;2023-03-11T11:22:19;6.97;;;1.80;;
23555;SDS011;11956;53.184;8.578;2023-03-11T11:25:40;7.22;;;1.85;;
23555;SDS011;11956;53.184;8.578;2023-03-11T11:28:43;5.43;;;1.70;;
23555;SDS011;11956;53.184;8.578;2023-03-11T11:31:44;7.57;;;2.05;;
23555;SDS011;11956;53.184;8.578;2023-03-11T11:34:53;6.18;;;2.20;;
23555;SDS011;11956;53.184;8.578;2023-03-11T11:38:01;8.48;;;1.80;;
23555;SDS011;11956;53.184;8.578;2023-03-11T11:41:03;6.80;;;1.73;;
23555;SDS011;11956;53.184;8.578;2023-03-11T11:44:06;6.63;;;1.88;;
23555;SDS011;11956;53.184;8.578;2023-03-11T11:47:16;6.75;;;1.60;;
23555;SDS011;11956;53.184;8.578;2023-03-11T11:53:43;9.30;;;2.20;;
23555;SDS011;11956;53.184;8.578;2023-03-11T11:57:00;6.75;;;2.00;;
23555;SDS011;11956;53.184;8.578;2023-03-11T12:00:22;4.55;;;1.63;;
23555;SDS011;11956;53.184;8.578;2023-03-11T12:04:26;7.07;;;1.70;;
23555;SDS011;11956;53.184;8.578;2023-03-11T12:08:08;8.30;;;1.98;;
23555;SDS011;11956;53.184;8.578;2023-03-11T12:11:18;8.95;;;2.30;;
23555;SDS011;11956;53.184;8.578;2023-03-11T12:17:37;7.97;;;1.95;;
23555;SDS011;11956;53.184;8.578;2023-03-11T12:20:44;4.55;;;1.30;;
23555;SDS011;11956;53.184;8.578;2023-03-11T12:23:55;6.13;;;1.70;;
23555;SDS011;11956;53.184;8.578;2023-03-11T12:30:30;10.50;;;2.13;;
23555;SDS011;11956;53.184;8.578;2023-03-11T12:36:40;5.97;;;1.45;;
23555;SDS011;11956;53.184;8.578;2023-03-11T12:39:43;6.35;;;1.50;;
23555;SDS011;11956;53.184;8.578;2023-03-11T12:42:44;5.70;;;1.85;;
23555;SDS011;11956;53.184;8.578;2023-03-11T12:45:52;7.38;;;1.80;;
23555;SDS011;11956;53.184;8.578;2023-03-11T13:09:10;6.78;;;1.50;;
23555;SDS011;11956;53.184;8.578;2023-03-11T13:12:48;8.27;;;1.60;;
23555;SDS011;11956;53.184;8.578;2023-03-11T13:15:46;4.88;;;1.30;;
23555;SDS011;11956;53.184;8.578;2023-03-11T13:18:47;7.15;;;1.40;;
23555;SDS011;11956;53.184;8.578;2023-03-11T13:24:59;4.38;;;1.10;;
23555;SDS011;11956;53.184;8.578;2023-03-11T13:39:42;11.75;;;1.30;;
23555;SDS011;11956;53.184;8.578;2023-03-11T13:42:51;6.18;;;1.27;;
23555;SDS011;11956;53.184;8.578;2023-03-11T13:46:01;4.20;;;1.30;;
23555;SDS011;11956;53.184;8.578;2023-03-11T13:49:15;6.50;;;1.55;;
23555;SDS011;11956;53.184;8.578;2023-03-11T13:52:40;6.93;;;1.55;;
23555;SDS011;11956;53.184;8.578;2023-03-11T13:55:46;6.55;;;1.58;;
23555;SDS011;11956;53.184;8.578;2023-03-11T13:58:48;6.13;;;1.23;;
23555;SDS011;11956;53.184;8.578;2023-03-11T14:01:50;7.60;;;1.58;;
23555;SDS011;11956;53.184;8.578;2023-03-11T14:04:53;6.25;;;1.27;;
23555;SDS011;11956;53.184;8.578;2023-03-11T14:11:34;4.65;;;1.75;;
23555;SDS011;11956;53.184;8.578;2023-03-11T14:14:50;6.30;;;1.20;;
23555;SDS011;11956;53.184;8.578;2023-03-11T14:18:17;6.07;;;1.35;;
23555;SDS011;11956;53.184;8.578;2023-03-11T14:21:42;6.57;;;1.58;;
23555;SDS011;11956;53.184;8.578;2023-03-11T14:24:46;10.30;;;1.73;;
23555;SDS011;11956;53.184;8.578;2023-03-11T14:27:49;6.73;;;1.70;;
23555;SDS011;11956;53.184;8.578;2023-03-11T14:30:57;4.18;;;1.70;;
23555;SDS011;11956;53.184;8.578;2023-03-11T14:34:01;7.85;;;1.60;;
23555;SDS011;11956;53.184;8.578;2023-03-11T14:37:21;4.45;;;1.08;;
23555;SDS011;11956;53.184;8.578;2023-03-11T14:40:32;8.85;;;1.80;;
23555;SDS011;11956;53.184;8.578;2023-03-11T14:43:41;5.88;;;1.25;;
23555;SDS011;11956;53.184;8.578;2023-03-11T14:46:47;6.28;;;3.30;;
23555;SDS011;11956;53.184;8.578;2023-03-11T14:49:49;6.13;;;1.42;;
23555;SDS011;11956;53.184;8.578;2023-03-11T14:52:57;6.45;;;3.08;;
23555;SDS011;11956;53.184;8.578;2023-03-11T14:56:03;5.53;;;1.60;;
23555;SDS011;11956;53.184;8.578;2023-03-11T14:59:21;4.53;;;1.30;;
23555;SDS011;11956;53.184;8.578;2023-03-11T15:05:50;5.20;;;1.52;;
23555;SDS011;11956;53.184;8.578;2023-03-11T15:08:56;8.20;;;1.98;;
23555;SDS011;11956;53.184;8.578;2023-03-11T15:12:07;4.30;;;1.65;;
23555;SDS011;11956;53.184;8.578;2023-03-11T15:15:36;6.43;;;1.25;;
23555;SDS011;11956;53.184;8.578;2023-03-11T15:18:37;5.75;;;1.25;;
23555;SDS011;11956;53.184;8.578;2023-03-11T15:21:43;6.90;;;1.20;;
23555;SDS011;11956;53.184;8.578;2023-03-11T15:24:49;9.00;;;1.60;;
23555;SDS011;11956;53.184;8.578;2023-03-11T15:31:36;5.35;;;1.65;;
23555;SDS011;11956;53.184;8.578;2023-03-11T15:34:38;4.85;;;1.48;;
23555;SDS011;11956;53.184;8.578;2023-03-11T15:37:48;5.70;;;1.60;;
23555;SDS011;11956;53.184;8.578;2023-03-11T15:40:52;6.50;;;1.70;;
23555;SDS011;11956;53.184;8.578;2023-03-11T15:44:00;5.28;;;1.38;;
23555;SDS011;11956;53.184;8.578;2023-03-11T15:47:02;5.38;;;1.27;;
23555;SDS011;11956;53.184;8.578;2023-03-11T15:50:13;6.40;;;1.75;;
23555;SDS011;11956;53.184;8.578;2023-03-11T15:53:23;5.45;;;1.30;;
23555;SDS011;11956;53.184;8.578;2023-03-11T15:56:26;5.57;;;1.35;;
23555;SDS011;11956;53.184;8.578;2023-03-11T15:59:27;6.80;;;1.40;;
23555;SDS011;11956;53.184;8.578;2023-03-11T16:02:30;4.97;;;1.70;;
23555;SDS011;11956;53.184;8.578;2023-03-11T16:05:31;6.57;;;1.30;;
23555;SDS011;11956;53.184;8.578;2023-03-11T16:08:32;7.95;;;2.13;;
23555;SDS011;11956;53.184;8.578;2023-03-11T16:11:33;5.45;;;1.50;;
23555;SDS011;11956;53.184;8.578;2023-03-11T16:14:35;5.57;;;1.75;;
23555;SDS011;11956;53.184;8.578;2023-03-11T16:17:36;7.90;;;1.85;;
23555;SDS011;11956;53.184;8.578;2023-03-11T16:20:41;3.50;;;1.30;;
23555;SDS011;11956;53.184;8.578;2023-03-11T16:23:46;5.05;;;1.20;;
23555;SDS011;11956;53.184;8.578;2023-03-11T16:26:48;1.55;;;0.93;;
23555;SDS011;11956;53.184;8.578;2023-03-11T16:29:51;4.05;;;1.05;;
23555;SDS011;11956;53.184;8.578;2023-03-11T16:32:52;5.72;;;1.30;;
23555;SDS011;11956;53.184;8.578;2023-03-11T16:35:52;3.72;;;1.10;;
23555;SDS011;11956;53.184;8.578;2023-03-11T16:38:53;4.80;;;1.05;;
23555;SDS011;11956;53.184;8.578;2023-03-11T16:41:54;2.92;;;1.05;;
23555;SDS011;11956;53.184;8.578;2023-03-11T16:44:55;4.05;;;1.55;;
23555;SDS011;11956;53.184;8.578;2023-03-11T16:47:56;2.83;;;1.45;;
23555;SDS011;11956;53.184;8.578;2023-03-11T16:50:58;4.72;;;1.90;;
23555;SDS011;11956;53.184;8.578;2023-03-11T16:53:59;3.35;;;1.50;;
23555;SDS011;11956;53.184;8.578;2023-03-11T16:57:00;8.02;;;3.67;;
23555;SDS011;11956;53.184;8.578;2023-03-11T17:00:02;9.18;;;3.80;;
23555;SDS011;11956;53.184;8.578;2023-03-11T17:06:08;11.48;;;5.43;;
23555;SDS011;11956;53.184;8.578;2023-03-11T17:09:09;10.60;;;3.92;;
23555;SDS011;11956;53.184;8.578;2023-03-11T17:12:10;7.28;;;2.53;;
23555;SDS011;11956;53.184;8.578;2023-03-11T17:15:14;8.52;;;3.22;;
23555;SDS011;11956;53.184;8.578;2023-03-11T17:18:15;6.38;;;2.65;;
23555;SDS011;11956;53.184;8.578;2023-03-11T17:21:16;6.78;;;1.80;;
23555;SDS011;11956;53.184;8.578;2023-03-11T17:24:17;9.10;;;2.47;;
23555;SDS011;11956;53.184;8.578;2023-03-11T17:27:18;4.30;;;1.75;;
23555;SDS011;11956;53.184;8.578;2023-03-11T17:30:19;4.10;;;2.20;;
23555;SDS011;11956;53.184;8.578;2023-03-11T17:33:20;5.70;;;1.65;;
23555;SDS011;11956;53.184;8.578;2023-03-11T17:36:21;2.92;;;1.77;;
23555;SDS011;11956;53.184;8.578;2023-03-11T17:39:22;5.07;;;2.22;;
23555;SDS011;11956;53.184;8.578;2023-03-11T17:42:23;2.63;;;1.80;;
23555;SDS011;11956;53.184;8.578;2023-03-11T17:45:24;3.78;;;1.90;;
23555;SDS011;11956;53.184;8.578;2023-03-11T17:48:25;5.32;;;2.47;;
23555;SDS011;11956;53.184;8.578;2023-03-11T17:51:27;6.80;;;1.75;;
23555;SDS011;11956;53.184;8.578;2023-03-11T17:54:27;6.15;;;2.38;;
23555;SDS011;11956;53.184;8.578;2023-03-11T17:57:28;5.10;;;1.45;;
23555;SDS011;11956;53.184;8.578;2023-03-11T18:00:29;4.75;;;1.33;;
23555;SDS011;11956;53.184;8.578;2023-03-11T18:03:30;8.32;;;1.80;;
23555;SDS011;11956;53.184;8.578;2023-03-11T18:06:31;7.90;;;2.00;;
23555;SDS011;11956;53.184;8.578;2023-03-11T18:09:32;5.10;;;1.60;;
23555;SDS011;11956;53.184;8.578;2023-03-11T18:12:33;5.78;;;1.67;;
23555;SDS011;11956;53.184;8.578;2023-03-11T18:15:34;8.85;;;2.70;;
23555;SDS011;11956;53.184;8.578;2023-03-11T18:18:35;7.47;;;1.98;;
23555;SDS011;11956;53.184;8.578;2023-03-11T18:21:37;4.60;;;2.20;;
23555;SDS011;11956;53.184;8.578;2023-03-11T18:24:37;6.97;;;2.85;;
23555;SDS011;11956;53.184;8.578;2023-03-11T18:27:38;6.70;;;2.72;;
23555;SDS011;11956;53.184;8.578;2023-03-11T18:30:40;3.72;;;2.03;;
23555;SDS011;11956;53.184;8.578;2023-03-11T18:33:41;5.43;;;2.50;;
23555;SDS011;11956;53.184;8.578;2023-03-11T18:36:47;5.78;;;3.38;;
23555;SDS011;11956;53.184;8.578;2023-03-11T18:39:48;8.02;;;3.38;;
23555;SDS011;11956;53.184;8.578;2023-03-11T18:42:52;6.35;;;3.00;;
23555;SDS011;11956;53.184;8.578;2023-03-11T18:45:53;10.02;;;3.72;;
23555;SDS011;11956;53.184;8.578;2023-03-11T18:48:54;10.55;;;4.57;;
23555;SDS011;11956;53.184;8.578;2023-03-11T18:51:56;8.93;;;4.00;;
23555;SDS011;11956;53.184;8.578;2023-03-11T18:54:58;9.15;;;4.82;;
23555;SDS011;11956;53.184;8.578;2023-03-11T18:57:59;8.52;;;4.40;;
23555;SDS011;11956;53.184;8.578;2023-03-11T19:01:18;10.55;;;4.93;;
23555;SDS011;11956;53.184;8.578;2023-03-11T19:04:20;10.52;;;5.15;;
23555;SDS011;11956;53.184;8.578;2023-03-11T19:07:21;10.38;;;4.68;;
23555;SDS011;11956;53.184;8.578;2023-03-11T19:10:21;8.18;;;4.22;;
23555;SDS011;11956;53.184;8.578;2023-03-11T19:13:22;9.15;;;5.50;;
23555;SDS011;11956;53.184;8.578;2023-03-11T19:16:23;9.15;;;3.55;;
23555;SDS011;11956;53.184;8.578;2023-03-11T19:19:25;11.00;;;4.53;;
23555;SDS011;11956;53.184;8.578;2023-03-11T19:22:26;13.18;;;4.60;;
23555;SDS011;11956;53.184;8.578;2023-03-11T19:25:27;11.02;;;4.43;;
23555;SDS011;11956;53.184;8.578;2023-03-11T19:28:28;14.77;;;6.20;;
23555;SDS011;11956;53.184;8.578;2023-03-11T19:31:29;8.32;;;4.90;;
23555;SDS011;11956;53.184;8.578;2023-03-11T19:34:30;12.10;;;4.72;;
23555;SDS011;11956;53.184;8.578;2023-03-11T19:37:31;19.52;;;5.65;;
23555;SDS011;11956;53.184;8.578;2023-03-11T19:40:31;15.45;;;5.70;;
23555;SDS011;11956;53.184;8.578;2023-03-11T19:43:33;15.05;;;5.15;;
23555;SDS011;11956;53.184;8.578;2023-03-11T19:46:34;9.02;;;4.60;;
23555;SDS011;11956;53.184;8.578;2023-03-11T19:49:35;12.80;;;4.60;;
23555;SDS011;11956;53.184;8.578;2023-03-11T19:52:36;9.88;;;4.60;;
23555;SDS011;11956;53.184;8.578;2023-03-11T19:55:40;10.02;;;5.15;;
23555;SDS011;11956;53.184;8.578;2023-03-11T19:58:43;10.00;;;5.43;;
23555;SDS011;11956;53.184;8.578;2023-03-11T20:01:44;11.40;;;5.22;;
23555;SDS011;11956;53.184;8.578;2023-03-11T20:04:45;9.65;;;4.20;;
23555;SDS011;11956;53.184;8.578;2023-03-11T20:07:45;9.75;;;4.40;;